sensor_id;sensor_type;location;lat;lon;timestamp;P1;durP1;ratioP1;P2;durP2;ratioP2
29026;SDS011;16120;48.608;9.092;2023-08-24T00:02:52;5.00;;;0.40;;
29026;SDS011;16120;48.608;9.092;2023-08-24T00:06:48;5.00;;;0.40;;
29026;SDS011;16120;48.608;9.092;2023-08-24T00:10:43;4.97;;;0.40;;
29026;SDS011;16120;48.608;9.092;2023-08-24T00:14:40;4.90;;;0.40;;
29026;SDS011;16120;48.608;9.092;2023-08-24T00:18:35;5.00;;;0.40;;
29026;SDS011;16120;48.608;9.092;2023-08-24T00:22:30;4.90;;;0.40;;
29026;SDS011;16120;48.608;9.092;2023-08-24T00:26:25;4.90;;;0.50;;
29026;SDS011;16120;48.608;9.092;2023-08-24T00:30:22;4.97;;;0.40;;
29026;SDS011;16120;48.608;9.092;2023-08-24T00:34:18;4.90;;;0.40;;
29026;SDS011;16120;48.608;9.092;2023-08-24T00:38:13;4.90;;;0.40;;
29026;SDS011;16120;48.608;9.092;2023-08-24T00:42:08;4.90;;;0.40;;
29026;SDS011;16120;48.608;9.092;2023-08-24T00:46:05;4.97;;;0.43;;
29026;SDS011;16120;48.608;9.092;2023-08-24T00:50:00;4.93;;;0.40;;
29026;SDS011;16120;48.608;9.092;2023-08-24T00:53:55;4.90;;;0.40;;
29026;SDS011;16120;48.608;9.092;2023-08-24T00:57:51;4.93;;;0.40;;
29026;SDS011;16120;48.608;9.092;2023-08-24T01:01:47;4.90;;;0.40;;
29026;SDS011;16120;48.608;9.092;2023-08-24T01:05:43;4.90;;;0.40;;
29026;SDS011;16120;48.608;9.092;2023-08-24T01:09:39;4.90;;;0.40;;
29026;SDS011;16120;48.608;9.092;2023-08-24T01:13:36;4.90;;;0.40;;
29026;SDS011;16120;48.608;9.092;2023-08-24T01:17:35;4.90;;;0.47;;
29026;SDS011;16120;48.608;9.092;2023-08-24T01:21:30;4.90;;;0.40;;
29026;SDS011;16120;48.608;9.092;2023-08-24T01:25:30;4.93;;;0.43;;
29026;SDS011;16120;48.608;9.092;2023-08-24T01:29:28;4.87;;;0.40;;
29026;SDS011;16120;48.608;9.092;2023-08-24T01:33:24;4.90;;;0.40;;
29026;SDS011;16120;48.608;9.092;2023-08-24T01:37:19;4.87;;;0.50;;
29026;SDS011;16120;48.608;9.092;2023-08-24T01:41:15;4.90;;;0.50;;
29026;SDS011;16120;48.608;9.092;2023-08-24T01:45:13;4.90;;;0.40;;
29026;SDS011;16120;48.608;9.092;2023-08-24T01:49:11;4.80;;;0.40;;
29026;SDS011;16120;48.608;9.092;2023-08-24T01:53:07;4.87;;;0.40;;
29026;SDS011;16120;48.608;9.092;2023-08-24T01:57:04;4.90;;;0.40;;
29026;SDS011;16120;48.608;9.092;2023-08-24T02:01:00;4.80;;;0.40;;
29026;SDS011;16120;48.608;9.092;2023-08-24T02:04:56;4.87;;;0.40;;
29026;SDS011;16120;48.608;9.092;2023-08-24T02:08:51;4.80;;;0.40;;
29026;SDS011;16120;48.608;9.092;2023-08-24T02:12:46;4.80;;;0.40;;
29026;SDS011;16120;48.608;9.092;2023-08-24T02:16:42;4.80;;;0.40;;
29026;SDS011;16120;48.608;9.092;2023-08-24T02:20:38;4.77;;;0.40;;
29026;SDS011;16120;48.608;9.092;2023-08-24T02:24:33;4.80;;;0.40;;
29026;SDS011;16120;48.608;9.092;2023-08-24T02:28:28;4.80;;;0.50;;
29026;SDS011;16120;48.608;9.092;2023-08-24T02:32:25;4.83;;;0.40;;
29026;SDS011;16120;48.608;9.092;2023-08-24T02:36:20;4.87;;;0.40;;
29026;SDS011;16120;48.608;9.092;2023-08-24T02:40:15;4.83;;;0.40;;
29026;SDS011;16120;48.608;9.092;2023-08-24T02:44:11;4.80;;;0.40;;
29026;SDS011;16120;48.608;9.092;2023-08-24T02:48:07;4.87;;;0.43;;
29026;SDS011;16120;48.608;9.092;2023-08-24T02:52:02;4.80;;;0.40;;
29026;SDS011;16120;48.608;9.092;2023-08-24T02:55:58;4.80;;;0.40;;
29026;SDS011;16120;48.608;9.092;2023-08-24T02:59:53;4.83;;;0.40;;
29026;SDS011;16120;48.608;9.092;2023-08-24T03:03:50;4.83;;;0.40;;
29026;SDS011;16120;48.608;9.092;2023-08-24T03:07:45;4.80;;;0.40;;
29026;SDS011;16120;48.608;9.092;2023-08-24T03:11:40;4.83;;;0.50;;
29026;SDS011;16120;48.608;9.092;2023-08-24T03:15:35;4.80;;;0.40;;
29026;SDS011;16120;48.608;9.092;2023-08-24T03:19:32;4.87;;;0.40;;
29026;SDS011;16120;48.608;9.092;2023-08-24T03:23:27;4.83;;;0.40;;
29026;SDS011;16120;48.608;9.092;2023-08-24T03:27:23;4.83;;;0.40;;
29026;SDS011;16120;48.608;9.092;2023-08-24T03:31:18;4.80;;;0.40;;
29026;SDS011;16120;48.608;9.092;2023-08-24T03:35:14;4.83;;;0.47;;
29026;SDS011;16120;48.608;9.092;2023-08-24T03:39:09;4.80;;;0.50;;
29026;SDS011;16120;48.608;9.092;2023-08-24T03:43:05;4.80;;;0.40;;
29026;SDS011;16120;48.608;9.092;2023-08-24T03:47:00;4.90;;;0.50;;
29026;SDS011;16120;48.608;9.092;2023-08-24T03:50:57;4.80;;;0.40;;
29026;SDS011;16120;48.608;9.092;2023-08-24T03:54:52;4.80;;;0.40;;
29026;SDS011;16120;48.608;9.092;2023-08-24T03:58:47;4.80;;;0.40;;
29026;SDS011;16120;48.608;9.092;2023-08-24T04:02:42;4.80;;;0.40;;
29026;SDS011;16120;48.608;9.092;2023-08-24T04:06:39;4.77;;;0.40;;
29026;SDS011;16120;48.608;9.092;2023-08-24T04:10:34;4.83;;;0.40;;
29026;SDS011;16120;48.608;9.092;2023-08-24T04:14:30;4.80;;;0.40;;
29026;SDS011;16120;48.608;9.092;2023-08-24T04:18:25;4.80;;;0.40;;
29026;SDS011;16120;48.608;9.092;2023-08-24T04:22:21;4.80;;;0.40;;
29026;SDS011;16120;48.608;9.092;2023-08-24T04:26:16;4.77;;;0.50;;
29026;SDS011;16120;48.608;9.092;2023-08-24T04:30:12;4.80;;;0.40;;
29026;SDS011;16120;48.608;9.092;2023-08-24T04:34:07;4.80;;;0.40;;
29026;SDS011;16120;48.608;9.092;2023-08-24T04:38:04;4.83;;;0.40;;
29026;SDS011;16120;48.608;9.092;2023-08-24T04:41:59;4.80;;;0.40;;
29026;SDS011;16120;48.608;9.092;2023-08-24T04:45:54;4.77;;;0.40;;
29026;SDS011;16120;48.608;9.092;2023-08-24T04:49:49;4.87;;;0.50;;
29026;SDS011;16120;48.608;9.092;2023-08-24T04:53:46;4.80;;;0.40;;
29026;SDS011;16120;48.608;9.092;2023-08-24T04:57:41;4.77;;;0.40;;
29026;SDS011;16120;48.608;9.092;2023-08-24T05:01:36;4.77;;;0.40;;
29026;SDS011;16120;48.608;9.092;2023-08-24T05:05:32;4.80;;;0.40;;
29026;SDS011;16120;48.608;9.092;2023-08-24T05:09:29;4.80;;;0.40;;
29026;SDS011;16120;48.608;9.092;2023-08-24T05:13:24;4.80;;;0.40;;
29026;SDS011;16120;48.608;9.092;2023-08-24T05:17:19;4.83;;;0.40;;
29026;SDS011;16120;48.608;9.092;2023-08-24T05:21:15;4.80;;;0.43;;
29026;SDS011;16120;48.608;9.092;2023-08-24T05:25:11;4.83;;;0.40;;
29026;SDS011;16120;48.608;9.092;2023-08-24T05:29:06;4.80;;;0.40;;
29026;SDS011;16120;48.608;9.092;2023-08-24T05:33:02;4.80;;;0.40;;
29026;SDS011;16120;48.608;9.092;2023-08-24T05:36:57;4.83;;;0.40;;
29026;SDS011;16120;48.608;9.092;2023-08-24T05:40:53;4.78;;;0.50;;
29026;SDS011;16120;48.608;9.092;2023-08-24T05:44:49;4.87;;;0.40;;
29026;SDS011;16120;48.608;9.092;2023-08-24T05:48:44;4.83;;;0.40;;
29026;SDS011;16120;48.608;9.092;2023-08-24T05:52:39;4.80;;;0.40;;
29026;SDS011;16120;48.608;9.092;2023-08-24T05:56:36;4.90;;;0.50;;
29026;SDS011;16120;48.608;9.092;2023-08-24T06:00:31;4.90;;;0.40;;
29026;SDS011;16120;48.608;9.092;2023-08-24T06:04:26;4.87;;;0.40;;
29026;SDS011;16120;48.608;9.092;2023-08-24T06:08:21;4.87;;;0.40;;
29026;SDS011;16120;48.608;9.092;2023-08-24T06:12:18;4.90;;;0.50;;
29026;SDS011;16120;48.608;9.092;2023-08-24T06:16:13;4.90;;;0.40;;
29026;SDS011;16120;48.608;9.092;2023-08-24T06:20:08;4.90;;;0.50;;
29026;SDS011;16120;48.608;9.092;2023-08-24T06:24:04;4.90;;;0.50;;
29026;SDS011;16120;48.608;9.092;2023-08-24T06:28:00;4.83;;;0.40;;
29026;SDS011;16120;48.608;9.092;2023-08-24T06:31:56;4.90;;;0.50;;
29026;SDS011;16120;48.608;9.092;2023-08-24T06:35:51;4.90;;;0.43;;
29026;SDS011;16120;48.608;9.092;2023-08-24T06:39:46;4.90;;;0.40;;
29026;SDS011;16120;48.608;9.092;2023-08-24T06:43:42;4.90;;;0.40;;
29026;SDS011;16120;48.608;9.092;2023-08-24T06:47:38;4.97;;;0.40;;
29026;SDS011;16120;48.608;9.092;2023-08-24T06:51:34;5.00;;;0.50;;
29026;SDS011;16120;48.608;9.092;2023-08-24T06:55:29;5.00;;;0.40;;
29026;SDS011;16120;48.608;9.092;2023-08-24T06:59:25;4.97;;;0.40;;
29026;SDS011;16120;48.608;9.092;2023-08-24T07:03:21;5.03;;;0.40;;
29026;SDS011;16120;48.608;9.092;2023-08-24T07:07:16;5.00;;;0.40;;
29026;SDS011;16120;48.608;9.092;2023-08-24T07:11:11;5.00;;;0.50;;
29026;SDS011;16120;48.608;9.092;2023-08-24T07:15:08;5.00;;;0.40;;
29026;SDS011;16120;48.608;9.092;2023-08-24T07:19:03;5.00;;;0.40;;
29026;SDS011;16120;48.608;9.092;2023-08-24T07:22:58;5.00;;;0.40;;
29026;SDS011;16120;48.608;9.092;2023-08-24T07:26:53;5.10;;;0.40;;
29026;SDS011;16120;48.608;9.092;2023-08-24T07:30:50;5.10;;;0.40;;
29026;SDS011;16120;48.608;9.092;2023-08-24T07:34:45;5.13;;;0.40;;
29026;SDS011;16120;48.608;9.092;2023-08-24T07:38:40;5.17;;;0.40;;
29026;SDS011;16120;48.608;9.092;2023-08-24T07:42:42;5.10;;;0.40;;
29026;SDS011;16120;48.608;9.092;2023-08-24T07:46:39;5.17;;;0.40;;
29026;SDS011;16120;48.608;9.092;2023-08-24T07:50:34;5.20;;;0.40;;
29026;SDS011;16120;48.608;9.092;2023-08-24T07:54:29;5.20;;;0.40;;
29026;SDS011;16120;48.608;9.092;2023-08-24T07:58:25;5.27;;;0.40;;
29026;SDS011;16120;48.608;9.092;2023-08-24T08:02:21;5.30;;;0.40;;
29026;SDS011;16120;48.608;9.092;2023-08-24T08:06:17;5.37;;;0.50;;
29026;SDS011;16120;48.608;9.092;2023-08-24T08:10:12;5.33;;;0.50;;
29026;SDS011;16120;48.608;9.092;2023-08-24T08:14:07;5.38;;;0.40;;
29026;SDS011;16120;48.608;9.092;2023-08-24T08:18:04;5.37;;;0.40;;
29026;SDS011;16120;48.608;9.092;2023-08-24T08:21:59;5.43;;;0.40;;
29026;SDS011;16120;48.608;9.092;2023-08-24T08:25:54;5.50;;;0.40;;
29026;SDS011;16120;48.608;9.092;2023-08-24T08:29:49;5.50;;;0.40;;
29026;SDS011;16120;48.608;9.092;2023-08-24T08:33:46;5.63;;;0.50;;
29026;SDS011;16120;48.608;9.092;2023-08-24T08:37:41;5.60;;;0.40;;
29026;SDS011;16120;48.608;9.092;2023-08-24T08:41:38;5.60;;;0.40;;
29026;SDS011;16120;48.608;9.092;2023-08-24T08:45:35;5.70;;;0.40;;
29026;SDS011;16120;48.608;9.092;2023-08-24T08:49:31;5.73;;;0.50;;
29026;SDS011;16120;48.608;9.092;2023-08-24T08:53:28;5.77;;;0.40;;
29026;SDS011;16120;48.608;9.092;2023-08-24T08:57:23;5.70;;;0.40;;
29026;SDS011;16120;48.608;9.092;2023-08-24T09:01:19;5.77;;;0.40;;
29026;SDS011;16120;48.608;9.092;2023-08-24T09:05:16;5.78;;;0.40;;
29026;SDS011;16120;48.608;9.092;2023-08-24T09:09:11;5.77;;;0.40;;
29026;SDS011;16120;48.608;9.092;2023-08-24T09:13:07;5.78;;;0.40;;
29026;SDS011;16120;48.608;9.092;2023-08-24T09:17:02;5.80;;;0.43;;
29026;SDS011;16120;48.608;9.092;2023-08-24T09:20:58;5.80;;;0.40;;
29026;SDS011;16120;48.608;9.092;2023-08-24T09:24:54;5.87;;;0.40;;
29026;SDS011;16120;48.608;9.092;2023-08-24T09:28:49;5.83;;;0.40;;
29026;SDS011;16120;48.608;9.092;2023-08-24T09:32:44;5.80;;;0.40;;
29026;SDS011;16120;48.608;9.092;2023-08-24T09:36:41;5.87;;;0.40;;
29026;SDS011;16120;48.608;9.092;2023-08-24T09:40:36;5.80;;;0.40;;
29026;SDS011;16120;48.608;9.092;2023-08-24T09:44:31;5.87;;;0.40;;
29026;SDS011;16120;48.608;9.092;2023-08-24T09:48:26;5.87;;;0.40;;
29026;SDS011;16120;48.608;9.092;2023-08-24T09:52:23;5.90;;;0.40;;
29026;SDS011;16120;48.608;9.092;2023-08-24T09:56:19;5.90;;;0.40;;
29026;SDS011;16120;48.608;9.092;2023-08-24T10:00:14;5.97;;;0.43;;
29026;SDS011;16120;48.608;9.092;2023-08-24T10:04:11;5.90;;;0.40;;
29026;SDS011;16120;48.608;9.092;2023-08-24T10:08:08;5.90;;;0.40;;
29026;SDS011;16120;48.608;9.092;2023-08-24T10:12:04;5.93;;;0.40;;
29026;SDS011;16120;48.608;9.092;2023-08-24T10:15:59;5.97;;;0.40;;
29026;SDS011;16120;48.608;9.092;2023-08-24T10:19:55;5.90;;;0.40;;
29026;SDS011;16120;48.608;9.092;2023-08-24T10:23:52;6.00;;;0.40;;
29026;SDS011;16120;48.608;9.092;2023-08-24T10:27:47;6.00;;;0.40;;
29026;SDS011;16120;48.608;9.092;2023-08-24T10:31:43;5.87;;;0.40;;
29026;SDS011;16120;48.608;9.092;2023-08-24T10:35:39;6.00;;;0.40;;
29026;SDS011;16120;48.608;9.092;2023-08-24T10:39:36;6.00;;;0.50;;
29026;SDS011;16120;48.608;9.092;2023-08-24T10:43:34;6.00;;;0.40;;
29026;SDS011;16120;48.608;9.092;2023-08-24T10:47:29;6.07;;;0.40;;
29026;SDS011;16120;48.608;9.092;2023-08-24T10:51:24;6.07;;;0.40;;
29026;SDS011;16120;48.608;9.092;2023-08-24T10:55:24;6.07;;;0.40;;
29026;SDS011;16120;48.608;9.092;2023-08-24T10:59:20;6.07;;;0.40;;
29026;SDS011;16120;48.608;9.092;2023-08-24T11:03:18;6.10;;;0.40;;
29026;SDS011;16120;48.608;9.092;2023-08-24T11:07:25;6.07;;;0.40;;
29026;SDS011;16120;48.608;9.092;2023-08-24T11:11:22;6.10;;;0.40;;
29026;SDS011;16120;48.608;9.092;2023-08-24T11:15:28;6.07;;;0.40;;
29026;SDS011;16120;48.608;9.092;2023-08-24T11:19:24;6.10;;;0.40;;
29026;SDS011;16120;48.608;9.092;2023-08-24T11:23:20;6.10;;;0.40;;
29026;SDS011;16120;48.608;9.092;2023-08-24T11:27:16;6.10;;;0.40;;
29026;SDS011;16120;48.608;9.092;2023-08-24T11:31:12;5.97;;;0.40;;
29026;SDS011;16120;48.608;9.092;2023-08-24T11:35:10;6.17;;;0.40;;
29026;SDS011;16120;48.608;9.092;2023-08-24T11:39:05;6.20;;;0.40;;
29026;SDS011;16120;48.608;9.092;2023-08-24T11:43:02;6.17;;;0.40;;
29026;SDS011;16120;48.608;9.092;2023-08-24T11:46:57;6.10;;;0.40;;
29026;SDS011;16120;48.608;9.092;2023-08-24T11:50:53;6.17;;;0.40;;
29026;SDS011;16120;48.608;9.092;2023-08-24T11:54:50;6.17;;;0.40;;
29026;SDS011;16120;48.608;9.092;2023-08-24T11:58:48;6.17;;;0.40;;
29026;SDS011;16120;48.608;9.092;2023-08-24T12:02:44;6.17;;;0.40;;
29026;SDS011;16120;48.608;9.092;2023-08-24T12:06:39;6.17;;;0.40;;
29026;SDS011;16120;48.608;9.092;2023-08-24T12:10:34;6.17;;;0.40;;
29026;SDS011;16120;48.608;9.092;2023-08-24T12:14:40;6.13;;;0.40;;
29026;SDS011;16120;48.608;9.092;2023-08-24T12:18:36;6.17;;;0.40;;
29026;SDS011;16120;48.608;9.092;2023-08-24T12:22:40;6.20;;;0.40;;
29026;SDS011;16120;48.608;9.092;2023-08-24T12:26:36;6.13;;;0.40;;
29026;SDS011;16120;48.608;9.092;2023-08-24T12:30:36;6.20;;;0.40;;
29026;SDS011;16120;48.608;9.092;2023-08-24T12:34:37;6.20;;;0.40;;
29026;SDS011;16120;48.608;9.092;2023-08-24T12:38:33;6.20;;;0.40;;
29026;SDS011;16120;48.608;9.092;2023-08-24T12:42:28;6.20;;;0.40;;
29026;SDS011;16120;48.608;9.092;2023-08-24T12:46:24;6.20;;;0.40;;
29026;SDS011;16120;48.608;9.092;2023-08-24T12:50:19;6.20;;;0.40;;
29026;SDS011;16120;48.608;9.092;2023-08-24T12:54:15;6.10;;;0.40;;
29026;SDS011;16120;48.608;9.092;2023-08-24T12:58:10;6.20;;;0.40;;
29026;SDS011;16120;48.608;9.092;2023-08-24T13:02:06;6.20;;;0.40;;
29026;SDS011;16120;48.608;9.092;2023-08-24T13:06:02;6.20;;;0.40;;
29026;SDS011;16120;48.608;9.092;2023-08-24T13:09:57;6.17;;;0.40;;
29026;SDS011;16120;48.608;9.092;2023-08-24T13:13:52;6.23;;;0.40;;
29026;SDS011;16120;48.608;9.092;2023-08-24T13:17:49;6.20;;;0.40;;
29026;SDS011;16120;48.608;9.092;2023-08-24T13:21:44;6.20;;;0.40;;
29026;SDS011;16120;48.608;9.092;2023-08-24T13:25:39;6.23;;;0.40;;
29026;SDS011;16120;48.608;9.092;2023-08-24T13:29:35;6.23;;;0.40;;
29026;SDS011;16120;48.608;9.092;2023-08-24T13:33:31;6.20;;;0.50;;
29026;SDS011;16120;48.608;9.092;2023-08-24T13:37:26;6.20;;;0.40;;
29026;SDS011;16120;48.608;9.092;2023-08-24T13:41:21;6.20;;;0.40;;
29026;SDS011;16120;48.608;9.092;2023-08-24T13:45:17;6.20;;;0.40;;
29026;SDS011;16120;48.608;9.092;2023-08-24T13:49:13;6.13;;;0.50;;
29026;SDS011;16120;48.608;9.092;2023-08-24T13:53:08;6.20;;;0.40;;
29026;SDS011;16120;48.608;9.092;2023-08-24T13:57:04;6.23;;;0.40;;
29026;SDS011;16120;48.608;9.092;2023-08-24T14:00:59;6.27;;;0.40;;
29026;SDS011;16120;48.608;9.092;2023-08-24T14:04:55;6.30;;;0.40;;
29026;SDS011;16120;48.608;9.092;2023-08-24T14:08:51;6.27;;;0.40;;
29026;SDS011;16120;48.608;9.092;2023-08-24T14:12:46;6.23;;;0.40;;
29026;SDS011;16120;48.608;9.092;2023-08-24T14:16:41;6.27;;;0.40;;
29026;SDS011;16120;48.608;9.092;2023-08-24T14:20:38;6.27;;;0.40;;
29026;SDS011;16120;48.608;9.092;2023-08-24T14:24:33;6.20;;;0.40;;
29026;SDS011;16120;48.608;9.092;2023-08-24T14:32:38;6.30;;;0.40;;
29026;SDS011;16120;48.608;9.092;2023-08-24T14:36:35;6.27;;;0.40;;
29026;SDS011;16120;48.608;9.092;2023-08-24T14:40:30;6.27;;;0.40;;
29026;SDS011;16120;48.608;9.092;2023-08-24T14:44:25;6.23;;;0.40;;
29026;SDS011;16120;48.608;9.092;2023-08-24T14:48:20;6.27;;;0.40;;
29026;SDS011;16120;48.608;9.092;2023-08-24T14:52:17;6.27;;;0.40;;
29026;SDS011;16120;48.608;9.092;2023-08-24T14:56:12;6.27;;;0.40;;
29026;SDS011;16120;48.608;9.092;2023-08-24T15:00:08;6.27;;;0.40;;
29026;SDS011;16120;48.608;9.092;2023-08-24T15:04:03;6.23;;;0.40;;
29026;SDS011;16120;48.608;9.092;2023-08-24T15:08:00;6.23;;;0.40;;
29026;SDS011;16120;48.608;9.092;2023-08-24T15:11:55;6.20;;;0.40;;
29026;SDS011;16120;48.608;9.092;2023-08-24T15:15:52;6.20;;;0.40;;
29026;SDS011;16120;48.608;9.092;2023-08-24T15:19:47;6.23;;;0.40;;
29026;SDS011;16120;48.608;9.092;2023-08-24T15:23:44;6.20;;;0.40;;
29026;SDS011;16120;48.608;9.092;2023-08-24T15:27:39;6.20;;;0.40;;
29026;SDS011;16120;48.608;9.092;2023-08-24T15:31:34;6.20;;;0.40;;
29026;SDS011;16120;48.608;9.092;2023-08-24T15:35:29;6.17;;;0.40;;
29026;SDS011;16120;48.608;9.092;2023-08-24T15:39:26;6.10;;;0.40;;
29026;SDS011;16120;48.608;9.092;2023-08-24T15:43:21;6.10;;;0.40;;
29026;SDS011;16120;48.608;9.092;2023-08-24T15:47:16;6.10;;;0.40;;
29026;SDS011;16120;48.608;9.092;2023-08-24T15:51:12;6.03;;;0.40;;
29026;SDS011;16120;48.608;9.092;2023-08-24T15:55:08;6.07;;;0.40;;
29026;SDS011;16120;48.608;9.092;2023-08-24T15:59:03;6.07;;;0.40;;
29026;SDS011;16120;48.608;9.092;2023-08-24T16:02:59;6.00;;;0.40;;
29026;SDS011;16120;48.608;9.092;2023-08-24T16:06:54;6.00;;;0.40;;
29026;SDS011;16120;48.608;9.092;2023-08-24T16:10:50;6.00;;;0.40;;
29026;SDS011;16120;48.608;9.092;2023-08-24T16:14:50;5.97;;;0.40;;
29026;SDS011;16120;48.608;9.092;2023-08-24T16:18:45;6.07;;;0.40;;
29026;SDS011;16120;48.608;9.092;2023-08-24T16:22:40;5.97;;;0.40;;
29026;SDS011;16120;48.608;9.092;2023-08-24T16:26:36;6.00;;;0.40;;
29026;SDS011;16120;48.608;9.092;2023-08-24T16:30:32;6.07;;;0.40;;
29026;SDS011;16120;48.608;9.092;2023-08-24T16:34:27;5.93;;;0.40;;
29026;SDS011;16120;48.608;9.092;2023-08-24T16:38:22;5.97;;;0.40;;
29026;SDS011;16120;48.608;9.092;2023-08-24T16:42:19;5.90;;;0.40;;
29026;SDS011;16120;48.608;9.092;2023-08-24T16:46:14;5.93;;;0.40;;
29026;SDS011;16120;48.608;9.092;2023-08-24T16:50:09;5.90;;;0.40;;
29026;SDS011;16120;48.608;9.092;2023-08-24T16:54:10;5.93;;;0.40;;
29026;SDS011;16120;48.608;9.092;2023-08-24T16:58:07;5.90;;;0.40;;
29026;SDS011;16120;48.608;9.092;2023-08-24T17:02:02;5.83;;;0.40;;
29026;SDS011;16120;48.608;9.092;2023-08-24T17:05:57;5.83;;;0.40;;
29026;SDS011;16120;48.608;9.092;2023-08-24T17:09:52;5.80;;;0.40;;
29026;SDS011;16120;48.608;9.092;2023-08-24T17:13:49;5.80;;;0.40;;
29026;SDS011;16120;48.608;9.092;2023-08-24T17:17:44;5.80;;;0.40;;
29026;SDS011;16120;48.608;9.092;2023-08-24T17:21:42;5.80;;;0.40;;
29026;SDS011;16120;48.608;9.092;2023-08-24T17:25:37;5.80;;;0.40;;
29026;SDS011;16120;48.608;9.092;2023-08-24T17:29:34;5.77;;;0.40;;
29026;SDS011;16120;48.608;9.092;2023-08-24T17:33:29;5.87;;;0.40;;
29026;SDS011;16120;48.608;9.092;2023-08-24T17:37:24;5.80;;;0.40;;
29026;SDS011;16120;48.608;9.092;2023-08-24T17:41:20;5.67;;;0.40;;
29026;SDS011;16120;48.608;9.092;2023-08-24T17:45:16;5.77;;;0.40;;
29026;SDS011;16120;48.608;9.092;2023-08-24T17:49:12;5.73;;;0.40;;
29026;SDS011;16120;48.608;9.092;2023-08-24T17:53:07;5.73;;;0.40;;
29026;SDS011;16120;48.608;9.092;2023-08-24T17:57:02;5.73;;;0.40;;
29026;SDS011;16120;48.608;9.092;2023-08-24T18:00:59;5.80;;;0.40;;
29026;SDS011;16120;48.608;9.092;2023-08-24T18:04:54;5.80;;;0.40;;
29026;SDS011;16120;48.608;9.092;2023-08-24T18:08:49;5.77;;;0.40;;
29026;SDS011;16120;48.608;9.092;2023-08-24T18:12:44;5.73;;;0.40;;
29026;SDS011;16120;48.608;9.092;2023-08-24T18:16:41;5.80;;;0.40;;
29026;SDS011;16120;48.608;9.092;2023-08-24T18:20:36;5.60;;;0.40;;
29026;SDS011;16120;48.608;9.092;2023-08-24T18:24:31;5.77;;;0.40;;
29026;SDS011;16120;48.608;9.092;2023-08-24T18:28:27;5.70;;;0.40;;
29026;SDS011;16120;48.608;9.092;2023-08-24T18:32:23;5.70;;;0.40;;
29026;SDS011;16120;48.608;9.092;2023-08-24T18:36:18;5.70;;;0.40;;
29026;SDS011;16120;48.608;9.092;2023-08-24T18:40:14;5.77;;;0.40;;
29026;SDS011;16120;48.608;9.092;2023-08-24T18:44:09;5.63;;;0.40;;
29026;SDS011;16120;48.608;9.092;2023-08-24T18:48:06;5.70;;;0.40;;
29026;SDS011;16120;48.608;9.092;2023-08-24T18:52:01;5.70;;;0.40;;
29026;SDS011;16120;48.608;9.092;2023-08-24T18:55:57;5.60;;;0.40;;
29026;SDS011;16120;48.608;9.092;2023-08-24T18:59:52;5.67;;;0.40;;
29026;SDS011;16120;48.608;9.092;2023-08-24T19:03:49;5.60;;;0.40;;
29026;SDS011;16120;48.608;9.092;2023-08-24T19:07:44;5.60;;;0.40;;
29026;SDS011;16120;48.608;9.092;2023-08-24T19:11:39;5.50;;;0.50;;
29026;SDS011;16120;48.608;9.092;2023-08-24T19:15:35;6.10;;;0.60;;
29026;SDS011;16120;48.608;9.092;2023-08-24T19:19:32;5.40;;;0.50;;
29026;SDS011;16120;48.608;9.092;2023-08-24T19:23:27;5.40;;;0.50;;
29026;SDS011;16120;48.608;9.092;2023-08-24T19:27:22;5.37;;;0.50;;
29026;SDS011;16120;48.608;9.092;2023-08-24T19:31:18;5.30;;;0.40;;
29026;SDS011;16120;48.608;9.092;2023-08-24T19:35:14;5.40;;;0.40;;
29026;SDS011;16120;48.608;9.092;2023-08-24T19:39:09;5.30;;;0.40;;
29026;SDS011;16120;48.608;9.092;2023-08-24T19:43:05;5.30;;;0.40;;
29026;SDS011;16120;48.608;9.092;2023-08-24T19:47:00;5.30;;;0.40;;
29026;SDS011;16120;48.608;9.092;2023-08-24T19:50:56;5.27;;;0.40;;
29026;SDS011;16120;48.608;9.092;2023-08-24T19:54:51;5.27;;;0.40;;
29026;SDS011;16120;48.608;9.092;2023-08-24T19:58:47;5.23;;;0.40;;
29026;SDS011;16120;48.608;9.092;2023-08-24T20:02:42;5.17;;;0.40;;
29026;SDS011;16120;48.608;9.092;2023-08-24T20:06:38;5.20;;;0.40;;
29026;SDS011;16120;48.608;9.092;2023-08-24T20:10:34;5.17;;;0.40;;
29026;SDS011;16120;48.608;9.092;2023-08-24T20:14:29;5.13;;;0.40;;
29026;SDS011;16120;48.608;9.092;2023-08-24T20:18:24;5.17;;;0.40;;
29026;SDS011;16120;48.608;9.092;2023-08-24T20:22:21;5.10;;;0.40;;
29026;SDS011;16120;48.608;9.092;2023-08-24T20:26:16;5.10;;;0.40;;
29026;SDS011;16120;48.608;9.092;2023-08-24T20:30:11;5.03;;;0.40;;
29026;SDS011;16120;48.608;9.092;2023-08-24T20:34:06;5.10;;;0.40;;
29026;SDS011;16120;48.608;9.092;2023-08-24T20:38:03;5.10;;;0.40;;
29026;SDS011;16120;48.608;9.092;2023-08-24T20:42:11;5.13;;;0.40;;
29026;SDS011;16120;48.608;9.092;2023-08-24T20:46:06;5.10;;;0.40;;
29026;SDS011;16120;48.608;9.092;2023-08-24T20:50:01;5.10;;;0.40;;
29026;SDS011;16120;48.608;9.092;2023-08-24T20:53:58;5.03;;;0.40;;
29026;SDS011;16120;48.608;9.092;2023-08-24T20:57:53;5.10;;;0.40;;
29026;SDS011;16120;48.608;9.092;2023-08-24T21:01:48;5.13;;;0.40;;
29026;SDS011;16120;48.608;9.092;2023-08-24T21:05:44;5.10;;;0.40;;
29026;SDS011;16120;48.608;9.092;2023-08-24T21:09:40;5.10;;;0.40;;
29026;SDS011;16120;48.608;9.092;2023-08-24T21:13:35;5.10;;;0.40;;
29026;SDS011;16120;48.608;9.092;2023-08-24T21:17:31;5.10;;;0.40;;
29026;SDS011;16120;48.608;9.092;2023-08-24T21:21:26;5.03;;;0.40;;
29026;SDS011;16120;48.608;9.092;2023-08-24T21:25:23;5.10;;;0.40;;
29026;SDS011;16120;48.608;9.092;2023-08-24T21:29:18;5.00;;;0.40;;
29026;SDS011;16120;48.608;9.092;2023-08-24T21:33:13;5.10;;;0.40;;
29026;SDS011;16120;48.608;9.092;2023-08-24T21:37:08;5.10;;;0.40;;
29026;SDS011;16120;48.608;9.092;2023-08-24T21:41:05;5.10;;;0.40;;
29026;SDS011;16120;48.608;9.092;2023-08-24T21:45:00;5.10;;;0.40;;
29026;SDS011;16120;48.608;9.092;2023-08-24T21:48:55;5.10;;;0.40;;
29026;SDS011;16120;48.608;9.092;2023-08-24T21:52:50;5.10;;;0.40;;
29026;SDS011;16120;48.608;9.092;2023-08-24T21:56:47;5.13;;;0.40;;
29026;SDS011;16120;48.608;9.092;2023-08-24T22:00:42;5.10;;;0.40;;
29026;SDS011;16120;48.608;9.092;2023-08-24T22:04:37;5.10;;;0.40;;
29026;SDS011;16120;48.608;9.092;2023-08-24T22:08:34;5.00;;;0.40;;
29026;SDS011;16120;48.608;9.092;2023-08-24T22:12:30;5.00;;;0.40;;
29026;SDS011;16120;48.608;9.092;2023-08-24T22:16:26;5.10;;;0.40;;
29026;SDS011;16120;48.608;9.092;2023-08-24T22:20:21;5.07;;;0.40;;
29026;SDS011;16120;48.608;9.092;2023-08-24T22:24:16;5.10;;;0.40;;
29026;SDS011;16120;48.608;9.092;2023-08-24T22:28:13;5.10;;;0.40;;
29026;SDS011;16120;48.608;9.092;2023-08-24T22:32:08;5.10;;;0.40;;
29026;SDS011;16120;48.608;9.092;2023-08-24T22:36:04;5.10;;;0.40;;
29026;SDS011;16120;48.608;9.092;2023-08-24T22:39:59;5.10;;;0.40;;
29026;SDS011;16120;48.608;9.092;2023-08-24T22:43:55;5.10;;;0.40;;
29026;SDS011;16120;48.608;9.092;2023-08-24T22:47:51;5.10;;;0.40;;
29026;SDS011;16120;48.608;9.092;2023-08-24T22:51:46;5.10;;;0.40;;
29026;SDS011;16120;48.608;9.092;2023-08-24T22:55:41;5.10;;;0.40;;
29026;SDS011;16120;48.608;9.092;2023-08-24T22:59:37;5.10;;;0.40;;
29026;SDS011;16120;48.608;9.092;2023-08-24T23:03:33;5.07;;;0.40;;
29026;SDS011;16120;48.608;9.092;2023-08-24T23:07:28;5.07;;;0.40;;
29026;SDS011;16120;48.608;9.092;2023-08-24T23:11:23;5.03;;;0.40;;
29026;SDS011;16120;48.608;9.092;2023-08-24T23:15:20;5.07;;;0.40;;
29026;SDS011;16120;48.608;9.092;2023-08-24T23:19:15;5.10;;;0.40;;
29026;SDS011;16120;48.608;9.092;2023-08-24T23:23:10;5.10;;;0.50;;
29026;SDS011;16120;48.608;9.092;2023-08-24T23:27:05;5.10;;;0.40;;
29026;SDS011;16120;48.608;9.092;2023-08-24T23:31:02;5.00;;;0.40;;
29026;SDS011;16120;48.608;9.092;2023-08-24T23:34:57;5.10;;;0.40;;
29026;SDS011;16120;48.608;9.092;2023-08-24T23:38:52;5.07;;;0.40;;
29026;SDS011;16120;48.608;9.092;2023-08-24T23:42:47;5.03;;;0.40;;
29026;SDS011;16120;48.608;9.092;2023-08-24T23:46:44;5.07;;;0.50;;